Main page
METAR-TAF:

METAR-TAF

Airports :

Trieste – Friuli Venezia Giulia Airport

Trieste / Ronchi dei Legionari, Italy

latitude: 45-49N, longitude: 013-29E, elevation: 12 m

Current weather observation

The report was made 33 minutes ago, at 01:20 UTC
Wind 3 kt from the North/Northeast
Temperature 0°C
Humidity 80%
Pressure 1015 hPa
Visibility 10 km or more

METAR: LIPQ 200120Z AUTO 02003KT 9999 OVC099/// 00/M03 Q1015

Time: 02:53 (01:53 UTC)

Forecast

The report was made 2 hours and 53 minutes ago, at 23:00 UTC
Forecast valid from 20 at 00 UTC to 20 at 24 UTC
Wind 10 kt from the East
Visibility 10 km or more
Scattered clouds at a height of 4000 ft

TAF: LIPQ 192300Z 2000/2024 08010KT 9999 SCT040

Weather observations and forecasts of more than 4000 airports (METAR and TAF reports).

The available stations are represented by yellow and red dots on the map.

Hover mouse over dot to see the name of the station.

Then click to see weather observations and forecasts.

To change the map : click on the green buttons with a black cross to zoom in, on the green button with a dash to zoom out, or on the green arrows for adjacent maps.


METAR-TAF: